Time;durP1;ratioP1;P1;durP2;ratioP2;P2;SDS_P1;SDS_P2;PMS_P1;PMS_P2;Temp;Humidity;BMP_temperature;BMP_pressure;BME280_temperature;BME280_humidity;BME280_pressure;Samples;Min_cycle;Max_cycle;Signal;HPM_P1;HPM_P2
2022/11/17 00:00:11;;;;;;;3.13;2.20;;;;;;;12.02;70.22;97732.19;341326;28;1805;-68
2022/11/17 00:00:23;;;;;;;3.05;2.10;;;;;;;11.99;70.78;97738.41;342301;28;1454;-69
2022/11/17 00:00:36;;;;;;;3.92;2.10;;;;;;;11.95;71.02;97736.97;341434;28;1878;-68
2022/11/17 00:00:47;;;;;;;4.53;2.25;;;;;;;11.95;71.17;97731.75;341834;28;1496;-69
2022/11/17 00:01:06;;;;;;;4.47;2.35;;;;;;;11.98;70.89;97732.38;340805;28;1848;-69
2022/11/17 00:01:20;;;;;;;4.15;2.13;;;;;;;11.99;71.10;97739.28;341380;28;1323;-69
2022/11/17 00:01:32;;;;;;;3.78;2.15;;;;;;;12.01;71.04;97730.50;341731;28;1834;-69
2022/11/17 00:01:44;;;;;;;3.50;2.20;;;;;;;12.02;71.17;97737.41;340654;28;1967;-69
2022/11/17 00:01:56;;;;;;;3.35;2.30;;;;;;;12.04;70.37;97735.53;341279;28;2219;-69
2022/11/17 00:02:08;;;;;;;3.15;2.22;;;;;;;12.04;70.44;97730.31;342756;28;1820;-69
2022/11/17 00:02:20;;;;;;;3.17;2.03;;;;;;;12.05;70.31;97726.75;342773;28;1208;-69
2022/11/17 00:02:32;;;;;;;4.03;2.00;;;;;;;12.08;69.80;97731.75;341297;28;1819;-69
2022/11/17 00:02:45;;;;;;;4.28;2.17;;;;;;;12.08;69.52;97726.56;341855;28;1921;-69
2022/11/17 00:02:57;;;;;;;5.30;2.40;;;;;;;12.09;69.34;97733.41;341944;28;1047;-69
2022/11/17 00:03:14;;;;;;;5.47;2.60;;;;;;;12.08;69.31;97729.97;341895;28;1280;-68
2022/11/17 00:03:26;;;;;;;5.03;2.40;;;;;;;12.10;69.25;97724.69;341496;28;1875;-69
2022/11/17 00:03:38;;;;;;;5.63;2.30;;;;;;;12.08;68.92;97731.75;341911;28;1853;-69
2022/11/17 00:03:50;;;;;;;6.68;2.45;;;;;;;12.09;69.32;97728.22;341941;28;1143;-69
2022/11/17 00:04:02;;;;;;;6.68;2.60;;;;;;;12.08;69.56;97727.38;342022;28;1690;-69
2022/11/17 00:04:14;;;;;;;4.82;2.47;;;;;;;12.08;69.52;97726.56;342214;28;1078;-69
2022/11/17 00:04:29;;;;;;;6.32;2.38;;;;;;;12.09;69.91;97728.22;340542;28;1845;-69
2022/11/17 00:04:42;;;;;;;6.38;2.40;;;;;;;12.04;70.95;97725.94;341698;28;2141;-69
2022/11/17 00:04:54;;;;;;;4.93;2.30;;;;;;;12.04;71.20;97720.72;342505;28;1611;-69
2022/11/17 00:05:07;;;;;;;4.13;2.33;;;;;;;12.02;71.40;97722.59;340888;28;1063;-69
2022/11/17 00:05:19;;;;;;;5.20;2.40;;;;;;;11.95;70.60;97719.59;341237;28;1303;-69
2022/11/17 00:05:31;;;;;;;4.75;2.35;;;;;;;11.98;70.51;97721.97;341526;28;1810;-69
2022/11/17 00:05:43;;;;;;;5.13;2.40;;;;;;;11.99;70.85;97718.44;340875;28;2002;-68
2022/11/17 00:05:55;;;;;;;3.78;2.40;;;;;;;11.97;71.24;97715.13;342207;28;1142;-68
2022/11/17 00:06:07;;;;;;;3.35;2.30;;;;;;;11.97;71.74;97715.13;341844;28;2178;-69
2022/11/17 00:06:19;;;;;;;3.30;2.15;;;;;;;11.99;71.25;97715.00;342200;28;1321;-69
2022/11/17 00:06:31;;;;;;;4.28;2.10;;;;;;;11.99;71.66;97715.84;341578;28;1797;-69
2022/11/17 00:06:43;;;;;;;4.55;2.08;;;;;;;12.01;71.43;97720.09;342136;28;1670;-69
2022/11/17 00:06:56;;;;;;;4.32;2.10;;;;;;;12.02;71.31;97711.34;342306;28;1070;-68
2022/11/17 00:07:08;;;;;;;3.85;2.15;;;;;;;12.03;71.17;97707.81;342463;28;1051;-68
2022/11/17 00:07:20;;;;;;;3.28;2.03;;;;;;;12.04;71.43;97709.47;342087;28;1461;-68
2022/11/17 00:07:32;;;;;;;3.20;2.08;;;;;;;12.06;71.29;97712.81;340656;28;1879;-68
2022/11/17 00:07:45;;;;;;;3.23;2.00;;;;;;;12.07;70.96;97715.28;341971;28;1499;-68
2022/11/17 00:07:57;;;;;;;3.00;2.10;;;;;;;12.07;70.43;97704.03;342212;28;1059;-68
2022/11/17 00:08:09;;;;;;;2.83;2.00;;;;;;;12.08;70.41;97705.72;341963;28;1387;-68
2022/11/17 00:08:21;;;;;;;3.15;2.03;;;;;;;12.06;70.96;97705.00;341712;28;2023;-68
2022/11/17 00:08:32;;;;;;;3.90;2.00;;;;;;;12.04;71.10;97704.28;341341;28;1807;-68
2022/11/17 00:08:45;;;;;;;4.22;2.00;;;;;;;12.05;71.04;97711.13;341577;28;1867;-68
2022/11/17 00:08:57;;;;;;;4.20;2.00;;;;;;;12.05;71.17;97700.72;341565;28;1771;-68
2022/11/17 00:09:16;;;;;;;4.80;2.17;;;;;;;12.04;71.28;97704.28;341454;28;1908;-68
2022/11/17 00:09:28;;;;;;;4.32;2.25;;;;;;;12.04;71.15;97701.66;341860;28;1851;-68
2022/11/17 00:09:40;;;;;;;3.35;2.00;;;;;;;12.05;70.94;97701.53;341453;28;1529;-68
2022/11/17 00:09:52;;;;;;;5.30;2.13;;;;;;;12.07;70.88;97691.03;339852;28;4812;-68
2022/11/17 00:10:04;;;;;;;4.78;2.15;;;;;;;12.06;70.83;97697.19;341437;28;3035;-68
2022/11/17 00:10:17;;;;;;;5.38;2.60;;;;;;;12.07;71.35;97693.63;340750;28;1678;-68
2022/11/17 00:10:28;;;;;;;5.03;2.75;;;;;;;12.06;71.35;97698.00;341315;28;2460;-68
2022/11/17 00:10:40;;;;;;;5.50;2.83;;;;;;;12.08;71.07;97700.50;341644;28;1864;-68
2022/11/17 00:10:52;;;;;;;4.53;2.30;;;;;;;12.08;71.31;97690.91;342279;28;2079;-68
2022/11/17 00:11:04;;;;;;;5.78;2.35;;;;;;;12.09;71.38;97691.75;340994;28;1734;-68
2022/11/17 00:11:17;;;;;;;5.07;2.17;;;;;;;12.06;70.55;97691.97;342275;28;1516;-68
2022/11/17 00:14:31;;;;;;;4.75;2.30;;;;;;;12.07;70.60;97693.63;341722;28;1798;-68
2022/11/17 00:14:52;;;;;;;5.75;2.00;;;;;;;11.95;70.59;97664.91;337777;29;1147;-69
2022/11/17 00:15:04;;;;;;;4.95;2.00;;;;;;;11.93;70.82;97676.34;337695;29;2243;-68
2022/11/17 00:15:16;;;;;;;4.00;1.80;;;;;;;11.95;70.84;97670.13;337589;29;2122;-69
2022/11/17 00:15:28;;;;;;;4.57;1.80;;;;;;;11.90;70.71;97659.19;338152;29;1070;-68
2022/11/17 00:15:42;;;;;;;5.05;1.98;;;;;;;11.88;71.48;97668.84;337928;29;1102;-69
2022/11/17 00:15:54;;;;;;;4.32;2.05;;;;;;;11.90;71.58;97672.22;336797;29;2367;-68
2022/11/17 00:16:06;;;;;;;3.97;2.00;;;;;;;11.90;71.09;97661.78;338232;28;1296;-68
2022/11/17 00:16:19;;;;;;;4.32;2.10;;;;;;;11.90;71.14;97667.00;342073;28;1565;-69
2022/11/17 00:16:31;;;;;;;4.40;2.10;;;;;;;11.90;70.80;97661.78;341088;28;1761;-68
2022/11/17 00:16:48;;;;;;;4.95;2.15;;;;;;;11.84;70.78;97667.41;340685;29;1821;-69
2022/11/17 00:17:08;;;;;;;5.55;2.00;;;;;;;11.84;70.87;97662.19;340958;29;1312;-68
2022/11/17 00:17:20;;;;;;;4.80;2.05;;;;;;;11.87;71.04;97666.34;341246;28;2039;-68
2022/11/17 00:17:32;;;;;;;4.22;2.10;;;;;;;11.86;71.06;97660.31;341169;28;1679;-68
2022/11/17 00:17:47;;;;;;;3.97;2.03;;;;;;;11.88;71.29;97657.59;341517;28;1966;-69
2022/11/17 00:21:18;;;;;;;6.82;2.50;;;;;;;11.85;70.96;97653.47;341125;28;1081;-68
2022/11/17 00:21:30;;;;;;;4.30;2.22;;;;;;;11.67;70.92;97659.91;341090;28;1825;-68
2022/11/17 00:21:42;;;;;;;3.58;2.10;;;;;;;11.70;71.03;97654.50;341346;28;1865;-68
2022/11/17 00:21:54;;;;;;;3.67;2.22;;;;;;;11.68;70.90;97664.19;341686;28;1775;-68
2022/11/17 00:22:06;;;;;;;3.78;2.35;;;;;;;11.65;71.14;97661.78;342204;28;1072;-68
2022/11/17 00:22:18;;;;;;;4.50;2.55;;;;;;;11.66;71.13;97664.28;342311;28;1373;-68
2022/11/17 00:22:31;;;;;;;5.13;2.63;;;;;;;11.61;71.07;97671.59;341398;28;2039;-68
2022/11/17 00:22:43;;;;;;;4.57;2.47;;;;;;;11.58;71.36;97664.81;341318;28;1994;-68
2022/11/17 00:22:55;;;;;;;3.80;2.22;;;;;;;11.62;71.67;97667.22;341470;28;1793;-68
2022/11/17 00:23:07;;;;;;;4.70;2.40;;;;;;;11.59;71.82;97663.91;342020;28;1070;-68
2022/11/17 00:23:18;;;;;;;5.63;2.37;;;;;;;11.60;71.94;97667.31;341241;28;1743;-68
2022/11/17 00:23:45;;;;;;;6.22;2.38;;;;;;;11.59;71.23;97663.91;342087;28;1798;-69
2022/11/17 00:23:58;;;;;;;3.47;2.15;;;;;;;11.54;71.68;97671.16;342079;28;1015;-68
2022/11/17 00:24:15;;;;;;;4.22;2.10;;;;;;;11.52;71.98;97667.84;342204;28;1703;-68
2022/11/17 00:24:27;;;;;;;4.68;2.30;;;;;;;11.53;72.05;97672.13;341505;28;1990;-68
2022/11/17 00:24:38;;;;;;;4.22;2.30;;;;;;;11.54;71.92;97673.78;341471;28;1994;-68
2022/11/17 00:24:51;;;;;;;4.97;2.20;;;;;;;11.51;71.61;97671.41;341967;28;1064;-68
2022/11/17 00:25:03;;;;;;;5.90;2.35;;;;;;;11.54;71.76;97671.16;341865;28;1773;-68
2022/11/17 00:25:15;;;;;;;5.28;2.60;;;;;;;11.59;71.79;97669.09;340927;29;1107;-68
2022/11/17 00:25:26;;;;;;;5.43;2.50;;;;;;;11.54;71.84;97672.94;341890;28;1810;-68
2022/11/17 00:25:38;;;;;;;6.25;2.30;;;;;;;11.51;71.64;97671.41;341885;28;1783;-68
2022/11/17 00:25:50;;;;;;;5.30;2.28;;;;;;;11.54;71.58;97676.38;342153;28;1203;-68
2022/11/17 00:26:02;;;;;;;5.35;2.30;;;;;;;11.51;71.15;97676.59;342140;28;1077;-68
2022/11/17 00:26:16;;;;;;;4.85;2.40;;;;;;;11.46;71.07;97673.47;341259;28;2007;-68
2022/11/17 00:26:32;;;;;;;4.78;2.53;;;;;;;11.48;71.05;97679.38;340753;29;1232;-68
2022/11/17 00:27:02;;;;;;;3.53;2.25;;;;;;;11.44;71.26;97675.34;341055;28;1267;-68
2022/11/17 00:27:15;;;;;;;5.97;2.47;;;;;;;11.42;71.67;97682.41;341459;28;1770;-68
2022/11/17 00:27:27;;;;;;;5.47;2.55;;;;;;;11.38;71.97;97676.56;340656;28;1833;-68
2022/11/17 00:27:39;;;;;;;5.20;2.45;;;;;;;11.39;71.70;97675.66;341841;28;1861;-68
2022/11/17 00:27:51;;;;;;;4.55;2.25;;;;;;;11.41;72.12;97675.56;341394;28;1213;-68
2022/11/17 00:28:03;;;;;;;3.92;2.15;;;;;;;11.41;71.93;97683.38;342009;28;1411;-68
2022/11/17 00:28:15;;;;;;;6.25;2.30;;;;;;;11.40;72.37;97677.31;341311;28;2013;-68
2022/11/17 00:28:27;;;;;;;6.63;2.47;;;;;;;11.42;72.60;97669.41;342108;28;1747;-68
2022/11/17 00:28:39;;;;;;;4.68;2.40;;;;;;;11.44;72.35;97675.34;342068;28;1024;-68
2022/11/17 00:28:56;;;;;;;5.18;2.40;;;;;;;11.46;72.37;97673.47;341971;28;1297;-68
2022/11/17 00:29:08;;;;;;;4.70;2.38;;;;;;;11.47;72.26;97675.13;341789;28;1037;-68
2022/11/17 00:29:20;;;;;;;3.72;2.47;;;;;;;11.51;72.34;97671.41;342173;28;1216;-68
2022/11/17 00:29:32;;;;;;;4.53;2.42;;;;;;;11.53;71.97;97672.13;342199;28;1211;-68
2022/11/17 00:29:47;;;;;;;4.95;2.42;;;;;;;11.51;71.17;97674.00;342243;28;1070;-69
2022/11/17 00:29:59;;;;;;;4.13;2.30;;;;;;;11.52;71.17;97670.44;342253;28;1347;-68
2022/11/17 00:34:03;;;;;;;3.65;2.28;;;;;;;11.53;71.29;97669.53;342224;28;1299;-68
2022/11/17 00:34:03;;;;;;;6.30;2.70;;;;;;;11.64;71.98;97665.34;342407;28;1069;-69
2022/11/17 00:34:20;;;;;;;3.97;2.30;;;;;;;11.66;71.68;97666.91;342217;28;1693;-69
2022/11/17 00:34:32;;;;;;;3.75;2.25;;;;;;;11.67;71.35;97659.91;340766;29;1768;-69
2022/11/17 00:34:44;;;;;;;4.00;2.30;;;;;;;11.65;71.52;97662.66;340856;29;1103;-68
2022/11/17 00:34:56;;;;;;;4.07;2.28;;;;;;;11.63;71.37;97668.88;340252;29;1820;-68
2022/11/17 00:35:08;;;;;;;3.08;2.13;;;;;;;11.62;71.02;97670.66;340768;29;1173;-69
2022/11/17 00:35:20;;;;;;;3.63;2.40;;;;;;;11.62;71.23;97667.22;339938;29;1713;-69
2022/11/17 00:35:32;;;;;;;3.70;2.30;;;;;;;11.63;71.12;97669.72;340811;29;1621;-69
2022/11/17 00:35:50;;;;;;;5.07;2.20;;;;;;;11.65;71.60;97667.00;340925;29;1244;-69
2022/11/17 00:36:02;;;;;;;5.30;2.20;;;;;;;11.65;71.36;97667.84;340021;29;1188;-69
2022/11/17 00:36:14;;;;;;;5.28;2.30;;;;;;;11.68;71.74;97672.00;340227;28;1820;-69
2022/11/17 00:36:26;;;;;;;5.25;2.30;;;;;;;11.70;71.59;97672.72;341699;28;1874;-69
2022/11/17 00:36:41;;;;;;;4.45;2.25;;;;;;;11.69;71.91;97671.06;342051;28;1168;-69
2022/11/17 00:36:54;;;;;;;3.65;2.20;;;;;;;11.73;71.72;97669.91;342106;28;1715;-69
2022/11/17 00:37:08;;;;;;;3.95;2.38;;;;;;;11.76;72.17;97672.31;342428;28;1066;-69
2022/11/17 00:37:20;;;;;;;5.43;2.38;;;;;;;11.77;71.98;97674.81;342446;28;1321;-69
2022/11/17 00:37:36;;;;;;;5.90;2.50;;;;;;;11.78;72.22;97673.03;342585;28;1101;-69
2022/11/17 00:38:18;;;;;;;6.18;2.40;;;;;;;11.74;72.46;97671.56;342033;28;1355;-69
2022/11/17 00:38:30;;;;;;;5.07;2.30;;;;;;;11.73;72.68;97669.91;342191;28;1048;-69
2022/11/17 00:38:42;;;;;;;5.47;2.60;;;;;;;11.72;72.76;97670.84;342183;28;1259;-69
2022/11/17 00:38:54;;;;;;;5.13;2.60;;;;;;;11.73;72.65;97670.75;342091;28;1315;-69
2022/11/17 00:39:07;;;;;;;4.93;2.55;;;;;;;11.71;72.87;97676.97;342301;28;1902;-69
2022/11/17 00:39:22;;;;;;;4.50;2.50;;;;;;;11.70;72.89;97670.13;342052;28;1289;-69
2022/11/17 00:39:34;;;;;;;5.72;2.53;;;;;;;11.70;72.97;97670.13;341627;28;1755;-69
2022/11/17 00:39:46;;;;;;;6.35;2.40;;;;;;;11.68;72.78;97678.03;342165;28;1935;-69
2022/11/17 00:39:58;;;;;;;5.63;2.38;;;;;;;11.69;72.69;97668.44;341856;28;1389;-69
2022/11/17 00:40:12;;;;;;;4.82;2.35;;;;;;;11.69;72.85;97676.25;342172;28;1369;-69
2022/11/17 00:40:24;;;;;;;4.65;2.40;;;;;;;11.65;72.75;97677.41;341683;28;1831;-69
2022/11/17 00:40:36;;;;;;;4.05;2.50;;;;;;;11.66;72.11;97673.88;341974;28;1661;-69
2022/11/17 00:40:48;;;;;;;4.20;2.40;;;;;;;11.61;72.24;97674.19;341503;28;1139;-69
2022/11/17 00:41:00;;;;;;;4.75;2.35;;;;;;;11.56;72.06;97674.50;342178;28;1067;-69
2022/11/17 00:41:12;;;;;;;5.00;2.20;;;;;;;11.58;72.22;97679.59;341675;28;1545;-69
2022/11/17 00:41:24;;;;;;;3.95;2.17;;;;;;;11.50;72.10;97680.13;342027;28;1908;-68
2022/11/17 00:41:36;;;;;;;3.72;2.15;;;;;;;11.47;71.94;97674.28;342197;28;1063;-69
2022/11/17 00:41:48;;;;;;;4.57;2.00;;;;;;;11.49;72.00;97678.47;341912;28;1910;-68
2022/11/17 00:42:00;;;;;;;4.60;2.10;;;;;;;11.49;72.24;97678.47;342099;28;1260;-68
2022/11/17 00:42:12;;;;;;;3.72;2.13;;;;;;;11.49;72.58;97672.41;342189;28;1097;-69
2022/11/17 00:42:24;;;;;;;4.03;2.10;;;;;;;11.50;72.08;97674.91;342532;28;1852;-69
2022/11/17 00:42:36;;;;;;;4.40;2.13;;;;;;;11.47;71.89;97680.34;343377;28;1961;-69
2022/11/17 00:42:48;;;;;;;5.75;2.10;;;;;;;11.47;72.03;97677.75;342984;28;1114;-69
2022/11/17 00:43:00;;;;;;;5.63;2.20;;;;;;;11.49;72.00;97678.47;342120;28;1100;-69
2022/11/17 00:43:12;;;;;;;4.30;2.10;;;;;;;11.50;72.29;97677.50;342001;28;1107;-69
2022/11/17 00:43:24;;;;;;;3.22;2.10;;;;;;;11.50;71.73;97674.91;343082;28;1263;-69
2022/11/17 00:43:35;;;;;;;4.65;2.25;;;;;;;11.51;72.23;97681.81;342427;28;1766;-69
2022/11/17 00:43:48;;;;;;;6.47;2.50;;;;;;;11.53;71.87;97679.06;343292;28;1234;-69
2022/11/17 00:44:00;;;;;;;5.20;2.40;;;;;;;11.54;72.32;97673.78;343265;28;1216;-69
2022/11/17 00:44:12;;;;;;;4.63;2.33;;;;;;;11.56;72.38;97677.09;342285;28;1076;-69
2022/11/17 00:44:24;;;;;;;4.15;2.40;;;;;;;11.52;72.44;97675.66;342019;28;1397;-69
2022/11/17 00:44:36;;;;;;;5.50;2.53;;;;;;;11.52;72.04;97673.03;341906;28;1717;-69
2022/11/17 00:44:48;;;;;;;5.03;2.35;;;;;;;11.55;71.93;97678.06;342406;28;1098;-69
2022/11/17 00:45:00;;;;;;;5.68;2.30;;;;;;;11.53;72.32;97679.06;342170;28;1099;-69
2022/11/17 00:45:12;;;;;;;6.00;2.17;;;;;;;11.53;72.38;97679.94;341348;28;2105;-69
2022/11/17 00:45:24;;;;;;;7.90;2.10;;;;;;;11.56;72.28;97674.50;342390;28;1865;-69
2022/11/17 00:45:36;;;;;;;6.40;2.10;;;;;;;11.55;72.11;97672.84;342101;28;1226;-69
2022/11/17 00:45:48;;;;;;;4.63;2.20;;;;;;;11.50;71.95;97672.31;342076;28;1756;-69
2022/11/17 00:46:00;;;;;;;4.38;2.10;;;;;;;11.51;72.04;97670.53;341934;28;1217;-68
2022/11/17 00:46:11;;;;;;;4.32;2.10;;;;;;;11.52;72.06;97675.66;342177;28;1058;-68
2022/11/17 00:46:23;;;;;;;3.20;1.95;;;;;;;11.50;72.49;97669.72;342040;28;1332;-69
2022/11/17 00:46:37;;;;;;;4.65;1.90;;;;;;;11.50;72.38;97674.91;341182;28;1784;-69
2022/11/17 00:46:49;;;;;;;5.22;2.00;;;;;;;11.48;72.24;97678.56;342090;28;1970;-69
2022/11/17 00:47:01;;;;;;;5.07;2.20;;;;;;;11.50;72.12;97680.13;342183;28;1051;-69
2022/11/17 00:47:12;;;;;;;4.93;2.25;;;;;;;11.50;72.37;97674.91;342361;28;1555;-69
2022/11/17 00:47:24;;;;;;;4.75;2.30;;;;;;;11.53;72.25;97668.66;342086;28;1764;-69
2022/11/17 00:47:36;;;;;;;4.18;2.17;;;;;;;11.54;72.36;97675.53;341577;28;1880;-68
2022/11/17 00:47:48;;;;;;;3.72;2.08;;;;;;;11.54;72.12;97672.94;341889;28;1723;-69
2022/11/17 00:48:00;;;;;;;4.22;2.03;;;;;;;11.55;71.96;97670.25;342051;28;1339;-68
2022/11/17 00:48:12;;;;;;;3.95;2.30;;;;;;;11.57;71.83;97676.19;341194;28;1589;-69
2022/11/17 00:48:24;;;;;;;4.35;2.63;;;;;;;11.58;71.89;97670.03;341900;28;2361;-69
2022/11/17 00:48:36;;;;;;;3.80;2.40;;;;;;;11.59;72.05;97674.31;341179;28;1750;-69
2022/11/17 00:48:48;;;;;;;3.72;2.25;;;;;;;11.61;72.14;97671.59;342276;28;1450;-69
2022/11/17 00:49:00;;;;;;;4.25;2.30;;;;;;;11.59;72.00;97669.09;341914;28;1196;-68
2022/11/17 00:49:13;;;;;;;4.93;2.50;;;;;;;11.58;72.08;97675.22;341783;28;2146;-68
2022/11/17 00:49:25;;;;;;;4.57;2.42;;;;;;;11.55;72.13;97670.25;342344;28;1306;-69
2022/11/17 00:49:37;;;;;;;3.38;2.20;;;;;;;11.58;72.27;97667.41;341180;28;1936;-69
2022/11/17 00:49:49;;;;;;;3.17;2.15;;;;;;;11.58;72.25;97667.41;342246;28;1857;-68
2022/11/17 00:50:01;;;;;;;3.40;2.20;;;;;;;11.59;72.14;97669.09;341624;28;2123;-69
2022/11/17 00:50:13;;;;;;;4.10;2.30;;;;;;;11.56;71.94;97664.09;340976;28;1778;-68
2022/11/17 00:50:25;;;;;;;4.45;2.25;;;;;;;11.62;72.02;97669.81;340963;28;1327;-69
2022/11/17 00:50:37;;;;;;;4.45;2.25;;;;;;;11.63;72.13;97669.72;340807;28;1843;-69
2022/11/17 00:50:48;;;;;;;4.47;2.20;;;;;;;11.65;72.08;97672.19;342040;28;1917;-68
2022/11/17 00:51:04;;;;;;;3.67;2.05;;;;;;;11.64;72.13;97666.16;342060;28;1034;-68
2022/11/17 00:51:16;;;;;;;2.95;2.13;;;;;;;11.68;72.02;97664.19;342430;28;1799;-69
2022/11/17 00:51:28;;;;;;;3.67;2.25;;;;;;;11.66;71.85;97673.88;342348;28;1034;-68
2022/11/17 00:51:40;;;;;;;4.32;2.30;;;;;;;11.66;72.08;97673.88;341982;28;1731;-69
2022/11/17 00:51:53;;;;;;;6.57;2.33;;;;;;;11.67;71.78;97667.72;341976;28;1075;-68
2022/11/17 00:52:05;;;;;;;6.50;2.30;;;;;;;11.67;71.76;97670.31;342416;28;1031;-68
2022/11/17 00:52:17;;;;;;;7.45;2.42;;;;;;;11.68;71.77;97670.22;342026;28;1282;-69
2022/11/17 00:52:29;;;;;;;5.70;2.40;;;;;;;11.66;71.80;97663.47;341779;28;1874;-68
2022/11/17 00:52:41;;;;;;;5.50;2.35;;;;;;;11.66;71.65;97671.28;341232;28;1502;-69
2022/11/17 00:52:53;;;;;;;5.05;2.17;;;;;;;11.67;71.90;97667.72;342128;28;1203;-68
2022/11/17 00:53:04;;;;;;;5.57;2.10;;;;;;;11.70;71.55;97664.91;342298;28;1047;-69
2022/11/17 00:53:16;;;;;;;6.95;2.10;;;;;;;11.69;71.39;97668.44;340847;28;1856;-69
2022/11/17 00:53:28;;;;;;;6.30;2.20;;;;;;;11.72;71.60;97668.25;340858;28;1743;-68
2022/11/17 00:53:40;;;;;;;4.05;2.00;;;;;;;11.72;71.67;97663.03;341769;28;1620;-69
2022/11/17 00:53:52;;;;;;;3.35;2.00;;;;;;;11.73;71.68;97667.28;341136;28;2082;-68
2022/11/17 00:54:06;;;;;;;3.53;2.00;;;;;;;11.75;71.84;97668.88;341945;28;1303;-69
2022/11/17 00:54:18;;;;;;;3.85;2.08;;;;;;;11.75;71.78;97661.06;342554;28;1288;-69
2022/11/17 00:54:30;;;;;;;5.07;2.05;;;;;;;11.76;71.37;97662.72;341933;28;1729;-69
2022/11/17 00:54:42;;;;;;;4.80;2.13;;;;;;;11.74;71.52;97659.38;341852;28;1683;-69
2022/11/17 00:54:54;;;;;;;4.82;2.33;;;;;;;11.75;71.51;97662.81;342388;28;1300;-68
2022/11/17 00:55:06;;;;;;;5.55;2.30;;;;;;;11.77;71.67;97660.94;342304;28;1057;-69
2022/11/17 00:55:18;;;;;;;5.03;2.20;;;;;;;11.76;71.25;97659.28;342242;28;1300;-68
2022/11/17 00:55:30;;;;;;;3.47;2.00;;;;;;;11.76;71.12;97664.50;341479;28;1866;-68
2022/11/17 00:55:42;;;;;;;5.50;2.05;;;;;;;11.77;71.40;97661.78;341477;28;1613;-69
2022/11/17 00:55:54;;;;;;;5.72;2.08;;;;;;;11.76;71.06;97656.69;342331;28;1083;-69
2022/11/17 00:56:06;;;;;;;4.82;2.05;;;;;;;11.76;71.32;97651.47;342186;28;1047;-68
2022/11/17 00:56:18;;;;;;;3.97;1.90;;;;;;;11.76;71.36;97661.91;341510;28;1805;-68
2022/11/17 00:56:30;;;;;;;4.80;1.80;;;;;;;11.76;71.44;97657.50;341461;28;1951;-69
2022/11/17 00:56:42;;;;;;;4.03;2.05;;;;;;;11.71;71.09;97661.38;342263;28;1203;-68
2022/11/17 00:56:54;;;;;;;4.20;2.08;;;;;;;11.68;71.14;97659.81;341039;28;1062;-68
2022/11/17 00:57:06;;;;;;;4.07;2.00;;;;;;;11.68;71.62;97656.38;340804;28;1066;-69
2022/11/17 00:57:18;;;;;;;3.45;2.00;;;;;;;11.66;70.95;97660.88;341242;28;1334;-68
2022/11/17 00:57:30;;;;;;;3.75;2.10;;;;;;;11.67;71.25;97654.72;341254;28;2187;-68
2022/11/17 00:57:42;;;;;;;4.20;2.20;;;;;;;11.69;71.50;97658.03;341582;28;1816;-69
2022/11/17 00:57:53;;;;;;;3.70;1.95;;;;;;;11.71;71.50;97662.22;340956;28;1066;-69
2022/11/17 00:58:05;;;;;;;3.67;1.95;;;;;;;11.72;71.24;97657.84;340639;28;1264;-69
2022/11/17 00:58:17;;;;;;;3.22;2.05;;;;;;;11.72;71.14;97650.03;340932;28;1270;-69
2022/11/17 00:58:29;;;;;;;3.95;2.38;;;;;;;11.71;71.06;97658.75;341706;28;1723;-69
2022/11/17 00:58:42;;;;;;;4.07;2.30;;;;;;;11.73;70.49;97654.28;341839;28;1666;-68
2022/11/17 00:58:54;;;;;;;3.70;1.98;;;;;;;11.73;70.70;97651.69;341751;28;1399;-68
2022/11/17 00:59:06;;;;;;;3.85;1.95;;;;;;;11.75;70.68;97657.59;341521;28;1940;-68
2022/11/17 00:59:17;;;;;;;4.53;1.90;;;;;;;11.77;70.69;97660.94;341688;28;1245;-68
2022/11/17 00:59:29;;;;;;;3.70;2.08;;;;;;;11.80;71.15;97648.56;340897;28;1193;-69
2022/11/17 00:59:41;;;;;;;3.28;2.13;;;;;;;11.83;71.03;97654.47;341013;28;1091;-69
2022/11/17 00:59:53;;;;;;;3.38;2.17;;;;;;;11.79;70.91;97648.66;341356;28;1915;-69
2022/11/17 01:00:06;;;;;;;4.05;2.08;;;;;;;11.82;70.93;97658.88;341345;28;1776;-69
2022/11/17 01:00:20;;;;;;;4.32;1.95;;;;;;;11.83;70.59;97657.09;341999;28;1231;-69
2022/11/17 01:00:31;;;;;;;5.00;1.87;;;;;;;11.85;70.98;97648.25;341479;28;1802;-69
2022/11/17 01:00:43;;;;;;;4.07;2.00;;;;;;;11.84;70.90;97645.75;342074;28;1832;-68
2022/11/17 01:00:55;;;;;;;3.05;2.10;;;;;;;11.85;70.96;97653.47;342011;28;1063;-68
2022/11/17 01:01:07;;;;;;;3.00;2.15;;;;;;;11.85;71.10;97652.59;341853;28;1910;-69
2022/11/17 01:01:20;;;;;;;3.35;2.00;;;;;;;11.85;71.13;97648.25;341914;28;1298;-69
2022/11/17 01:01:32;;;;;;;4.05;1.90;;;;;;;11.84;70.77;97656.16;341667;28;1985;-69
2022/11/17 01:01:45;;;;;;;4.78;2.00;;;;;;;11.80;70.75;97647.72;342118;28;1883;-69
2022/11/17 01:01:57;;;;;;;5.80;2.15;;;;;;;11.83;70.89;97655.34;341159;28;1563;-68
2022/11/17 01:02:09;;;;;;;5.10;2.15;;;;;;;11.83;70.66;97655.34;341974;28;1747;-68
2022/11/17 01:02:21;;;;;;;4.70;2.10;;;;;;;11.83;70.91;97650.13;341296;28;1849;-68
2022/11/17 01:02:33;;;;;;;4.68;1.95;;;;;;;11.86;71.41;97655.09;340523;28;1835;-68
2022/11/17 01:02:44;;;;;;;4.50;1.98;;;;;;;11.86;71.18;97649.91;342175;28;1180;-68
2022/11/17 01:02:56;;;;;;;4.45;1.95;;;;;;;11.89;71.00;97654.09;341994;28;1190;-69
2022/11/17 01:03:08;;;;;;;3.33;2.10;;;;;;;11.84;71.36;97656.97;342145;28;1296;-68
2022/11/17 01:03:20;;;;;;;4.18;2.15;;;;;;;11.86;71.29;97655.09;341135;28;1792;-69
2022/11/17 01:03:35;;;;;;;6.03;2.10;;;;;;;11.87;70.97;97650.72;342082;28;1805;-69
2022/11/17 01:03:48;;;;;;;5.65;2.13;;;;;;;11.91;70.76;97655.66;341120;28;2294;-68
2022/11/17 01:04:03;;;;;;;4.10;2.00;;;;;;;11.89;70.78;97649.72;342159;28;1341;-69
2022/11/17 01:04:15;;;;;;;4.07;1.92;;;;;;;11.84;71.00;97646.56;341979;28;1310;-68
2022/11/17 01:04:27;;;;;;;3.30;1.80;;;;;;;11.83;70.85;97647.53;341298;28;1241;-69
2022/11/17 01:04:39;;;;;;;2.95;1.88;;;;;;;11.74;71.30;97645.56;341270;28;1562;-68
2022/11/17 01:04:51;;;;;;;2.78;1.90;;;;;;;11.70;70.93;97646.69;341819;28;1757;-68
2022/11/17 01:05:03;;;;;;;3.95;1.83;;;;;;;11.69;71.15;97655.44;342106;28;1063;-68
2022/11/17 01:05:15;;;;;;;4.45;1.90;;;;;;;11.72;71.00;97647.44;340867;28;1667;-69
2022/11/17 01:05:27;;;;;;;4.18;1.92;;;;;;;11.75;71.58;97653.25;341642;28;2328;-68
2022/11/17 01:05:44;;;;;;;3.80;2.00;;;;;;;11.76;71.48;97654.09;340559;28;1778;-68
2022/11/17 01:06:03;;;;;;;2.97;1.90;;;;;;;11.72;71.61;97648.25;341857;28;1311;-68
2022/11/17 01:06:17;;;;;;;3.60;2.10;;;;;;;11.74;71.15;97648.97;341925;28;1043;-68
2022/11/17 01:06:34;;;;;;;4.47;2.20;;;;;;;11.76;71.08;97648.88;341602;28;1828;-68
2022/11/17 01:06:48;;;;;;;5.13;2.22;;;;;;;11.73;70.90;97634.31;341898;28;1954;-69
2022/11/17 01:07:00;;;;;;;5.70;2.20;;;;;;;11.71;71.13;97635.34;342070;28;1059;-68
2022/11/17 01:07:12;;;;;;;4.65;2.00;;;;;;;11.62;70.69;97641.19;342091;28;1047;-68
2022/11/17 01:07:24;;;;;;;3.25;1.90;;;;;;;11.64;70.99;97639.31;341706;28;1161;-68
2022/11/17 01:07:36;;;;;;;2.95;1.90;;;;;;;11.68;71.07;97646.81;341642;28;1784;-68
2022/11/17 01:07:48;;;;;;;4.03;1.90;;;;;;;11.70;71.31;97634.50;342053;28;1892;-68
2022/11/17 01:08:00;;;;;;;4.25;2.00;;;;;;;11.71;70.97;97637.94;341934;28;1334;-68
2022/11/17 01:08:12;;;;;;;3.58;1.88;;;;;;;11.70;70.77;97644.09;341370;28;1917;-68
2022/11/17 01:08:24;;;;;;;2.83;1.80;;;;;;;11.70;70.92;97638.91;341935;28;1345;-68
2022/11/17 01:08:36;;;;;;;2.90;1.80;;;;;;;11.71;71.27;97640.53;341031;28;1873;-68
2022/11/17 01:08:49;;;;;;;3.20;1.90;;;;;;;11.70;71.27;97638.91;341200;28;1620;-68
2022/11/17 01:09:21;;;;;;;3.45;1.92;;;;;;;11.66;71.49;97640.03;340299;29;1168;-68
2022/11/17 01:09:33;;;;;;;3.70;1.92;;;;;;;11.69;71.46;97638.06;340578;28;2006;-68
2022/11/17 01:09:45;;;;;;;3.25;1.83;;;;;;;11.68;71.48;97639.00;341281;28;1813;-68
2022/11/17 01:09:56;;;;;;;3.08;1.90;;;;;;;11.68;71.28;97635.56;340168;29;1051;-68
2022/11/17 01:10:09;;;;;;;4.47;2.00;;;;;;;11.66;71.00;97638.28;340486;29;1165;-68
2022/11/17 01:10:21;;;;;;;3.75;1.90;;;;;;;11.70;70.97;97638.91;340122;28;1923;-68
2022/11/17 01:10:35;;;;;;;2.75;1.90;;;;;;;11.73;71.33;97634.31;340360;29;1977;-68
2022/11/17 01:10:47;;;;;;;3.33;2.00;;;;;;;11.73;71.44;97638.66;340958;28;1890;-69
2022/11/17 01:11:11;;;;;;;3.35;2.10;;;;;;;11.69;71.22;97632.00;342180;28;1116;-68
2022/11/17 01:11:23;;;;;;;3.95;2.20;;;;;;;11.69;71.15;97637.22;341279;28;2609;-68
2022/11/17 01:11:35;;;;;;;3.83;2.10;;;;;;;11.71;71.21;97630.13;342123;28;1739;-69
2022/11/17 01:11:49;;;;;;;3.90;1.92;;;;;;;11.70;71.03;97633.69;342194;28;1063;-69
2022/11/17 01:12:01;;;;;;;4.13;1.85;;;;;;;11.72;71.05;97631.81;340916;29;1063;-68